Time;durP1;ratioP1;P1;durP2;ratioP2;P2;SDS_P1;SDS_P2;PMS_P1;PMS_P2;Temp;Humidity;BMP_temperature;BMP_pressure;BME280_temperature;BME280_humidity;BME280_pressure;Samples;Min_cycle;Max_cycle;Signal;HPM_P1;HPM_P2
2022/12/12 00:00:45;;;;;;;11.70;8.53;;;-0.90;99.90;;;;;;5031550;28;20581;-54
2022/12/12 00:03:11;;;;;;;11.07;8.60;;;;;;;;;;5031383;28;20280;-53
2022/12/12 00:05:37;;;;;;;12.70;8.87;;;;;;;;;;5031186;28;20477;-53
2022/12/12 00:08:03;;;;;;;11.17;8.13;;;;;;;;;;5031513;28;20257;-55
2022/12/12 00:10:29;;;;;;;10.83;8.40;;;;;;;;;;5031360;28;20449;-53
2022/12/12 00:12:55;;;;;;;11.07;8.53;;;;;;;;;;5031334;28;20423;-56
2022/12/12 00:15:21;;;;;;;13.07;9.43;;;;;;;;;;5031342;28;20418;-56
2022/12/12 00:17:47;;;;;;;11.43;8.83;;;;;;;;;;5031404;28;20237;-57
2022/12/12 00:20:13;;;;;;;12.77;9.47;;;;;;;;;;5031305;28;20207;-55
2022/12/12 00:22:39;;;;;;;11.27;8.67;;;;;;;;;;5031272;28;20199;-56
2022/12/12 00:25:05;;;;;;;12.27;9.33;;;-2.00;99.90;;;;;;5030985;28;20168;-56
2022/12/12 00:27:31;;;;;;;12.40;9.00;;;;;;;;;;5031269;28;20403;-55
2022/12/12 00:29:57;;;;;;;12.53;9.00;;;;;;;;;;5029857;28;20418;-53
2022/12/12 00:32:23;;;;;;;12.73;8.87;;;;;;;;;;5031409;28;20454;-53
2022/12/12 00:34:49;;;;;;;11.50;8.57;;;;;;;;;;5031290;28;20182;-54
2022/12/12 00:37:15;;;;;;;13.83;8.97;;;;;;;;;;5031204;28;20410;-55
2022/12/12 00:39:41;;;;;;;13.60;10.10;;;;;;;;;;5031154;28;20430;-55
2022/12/12 00:42:07;;;;;;;12.90;9.10;;;;;;;;;;5031138;28;20572;-55
2022/12/12 00:44:33;;;;;;;12.50;9.13;;;;;;;;;;5030780;28;20454;-54
2022/12/12 00:46:59;;;;;;;14.30;9.20;;;;;;;;;;5031140;28;20541;-53
2022/12/12 00:49:26;;;;;;;12.50;8.83;;;;;;;;;;5034467;28;20176;-51
2022/12/12 00:51:52;;;;;;;13.03;9.60;;;;;;;;;;5034880;28;20442;-50
2022/12/12 00:54:18;;;;;;;11.27;8.57;;;;;;;;;;5034601;28;20434;-53
2022/12/12 00:56:44;;;;;;;12.23;8.27;;;;;;;;;;5034899;28;21054;-52
2022/12/12 00:59:10;;;;;;;12.50;8.80;;;;;;;;;;5034760;28;20413;-55
2022/12/12 01:01:36;;;;;;;11.87;8.63;;;;;;;;;;5034710;28;20196;-51
2022/12/12 01:04:03;;;;;;;11.83;9.17;;;;;;;;;;5034471;28;20508;-54
2022/12/12 01:06:29;;;;;;;11.70;8.40;;;;;;;;;;5034826;28;20172;-56
2022/12/12 01:08:56;;;;;;;12.43;8.97;;;;;;;;;;5033173;28;20472;-56
2022/12/12 01:11:22;;;;;;;12.00;8.50;;;;;;;;;;5034529;28;20407;-55
2022/12/12 01:13:50;;;;;;;12.43;9.00;;;-0.70;99.90;;;;;;5034262;28;20470;-53
2022/12/12 01:16:16;;;;;;;11.50;8.73;;;;;;;;;;5034567;28;20556;-53
2022/12/12 01:18:42;;;;;;;11.70;9.03;;;;;;;;;;5034295;28;20912;-53
2022/12/12 01:21:13;;;;;;;12.10;9.00;;;;;;;;;;5034446;28;20237;-54
2022/12/12 01:23:39;;;;;;;10.20;7.70;;;;;;;;;;5033958;28;20208;-53
2022/12/12 01:26:07;;;;;;;11.67;8.90;;;;;;;;;;5034337;28;20560;-55
2022/12/12 01:28:33;;;;;;;13.70;9.40;;;-1.30;99.90;;;;;;5034173;28;20411;-56
2022/12/12 01:30:59;;;;;;;11.93;8.80;;;;;;;;;;5032884;28;20438;-55
2022/12/12 01:33:25;;;;;;;11.13;8.23;;;;;;;;;;5033937;28;20434;-57
2022/12/12 01:35:51;;;;;;;13.07;9.00;;;;;;;;;;5033976;28;20402;-53
2022/12/12 01:38:17;;;;;;;13.80;9.37;;;;;;;;;;5034016;28;20441;-53
2022/12/12 01:40:43;;;;;;;12.47;9.40;;;;;;;;;;5034055;28;20442;-56
2022/12/12 01:43:11;;;;;;;11.60;8.03;;;;;;;;;;5033938;28;20208;-57
2022/12/12 01:45:59;;;;;;;12.80;9.17;;;-1.20;99.90;;;;;;5033621;28;20410;-55
2022/12/12 01:48:33;;;;;;;12.23;8.60;;;-1.40;99.90;;;;;;5033845;28;20413;-57
2022/12/12 01:51:03;;;;;;;13.43;9.30;;;-1.10;99.90;;;;;;5033938;28;20441;-54
2022/12/12 01:53:31;;;;;;;13.17;9.40;;;-0.90;99.90;;;;;;5033529;28;20507;-50
2022/12/12 01:55:58;;;;;;;13.07;9.20;;;;;;;;;;5033666;28;20407;-55
2022/12/12 01:58:25;;;;;;;13.73;9.67;;;;;;;;;;5033610;28;20403;-52
2022/12/12 02:00:51;;;;;;;12.73;9.57;;;;;;;;;;5032554;28;20438;-57
2022/12/12 02:03:17;;;;;;;15.97;10.43;;;;;;;;;;5033381;28;20512;-55
2022/12/12 02:05:53;;;;;;;13.87;9.77;;;-1.10;99.90;;;;;;5033408;28;20407;-56
2022/12/12 02:08:20;;;;;;;14.27;10.30;;;-1.20;99.90;;;;;;5033483;28;20402;-54
2022/12/12 02:10:47;;;;;;;15.00;10.53;;;;;;;;;;5033580;28;20891;-53
2022/12/12 02:13:15;;;;;;;13.23;9.63;;;;;;;;;;5033344;28;20430;-58
2022/12/12 02:15:43;;;;;;;13.23;9.87;;;;;;;;;;5033302;28;20418;-53
2022/12/12 02:18:09;;;;;;;12.93;9.90;;;;;;;;;;5033231;28;20415;-54
2022/12/12 02:20:52;;;;;;;14.13;9.90;;;;;;;;;;5032099;28;20421;-53
2022/12/12 02:23:30;;;;;;;13.40;9.83;;;;;;;;;;5032977;28;20553;-53
2022/12/12 02:25:56;;;;;;;13.37;9.77;;;;;;;;;;5033162;28;20775;-53
2022/12/12 02:28:37;;;;;;;15.90;10.93;;;;;;;;;;5033114;28;20410;-54
2022/12/12 02:31:35;;;;;;;12.77;9.83;;;;;;;;;;5032910;28;20633;-54
2022/12/12 02:34:01;;;;;;;14.63;10.47;;;;;;;;;;5010615;28;20428;-53
2022/12/12 02:36:35;;;;;;;13.30;10.03;;;;;;;;;;5010858;28;20859;-54
2022/12/12 02:39:08;;;;;;;13.27;10.07;;;-0.60;99.90;;;;;;5010880;28;20185;-53
2022/12/12 02:41:39;;;;;;;13.77;9.97;;;-0.80;99.90;;;;;;5010855;28;20435;-56
2022/12/12 02:44:12;;;;;;;14.70;11.00;;;-1.10;99.90;;;;;;5010280;28;20474;-53
2022/12/12 02:46:57;;;;;;;14.60;10.03;;;-1.00;99.90;;;;;;5010725;28;21033;-52
2022/12/12 02:49:30;;;;;;;15.67;11.00;;;;;;;;;;5010657;28;20408;-56
2022/12/12 02:51:57;;;;;;;14.63;10.27;;;-1.20;99.90;;;;;;5010545;28;20427;-55
2022/12/12 02:54:23;;;;;;;15.73;11.37;;;;;;;;;;5010214;28;20493;-53
2022/12/12 02:56:49;;;;;;;14.50;10.53;;;;;;;;;;5010458;28;20422;-56
2022/12/12 02:59:21;;;;;;;14.80;10.37;;;;;;;;;;5010475;28;20506;-51
2022/12/12 03:01:49;;;;;;;14.87;10.97;;;;;;;;;;5010299;28;20295;-53
2022/12/12 03:10:18;;;;;;;13.57;10.00;;;;;;;;;;5025723;28;20453;-55
2022/12/12 03:12:50;;;;;;;14.07;10.47;;;;;;;;;;5032278;28;20427;-53
2022/12/12 03:15:23;;;;;;;15.70;11.13;;;-0.80;99.90;;;;;;5031985;28;20488;-54
2022/12/12 03:18:14;;;;;;;14.37;9.23;;;-0.90;99.90;;;;;;5032206;28;20852;-52
2022/12/12 03:21:02;;;;;;;15.33;10.93;;;;;;;;;;5032172;28;20486;-54
2022/12/12 03:23:32;;;;;;;13.80;9.80;;;;;;;;;;5032061;28;20548;-51
2022/12/12 03:26:00;;;;;;;13.27;9.57;;;;;;;;;;5031953;28;20813;-57
2022/12/12 03:28:30;;;;;;;12.57;9.17;;;;;;;;;;5032120;28;20402;-54
2022/12/12 03:30:58;;;;;;;13.53;9.67;;;;;;;;;;5032001;28;20464;-58
2022/12/12 03:33:34;;;;;;;12.50;8.60;;;-1.70;99.90;;;;;;5031859;28;20462;-53
2022/12/12 03:36:05;;;;;;;12.67;9.07;;;-1.60;99.90;;;;;;5031906;28;20767;-59
2022/12/12 03:38:33;;;;;;;13.77;10.03;;;;;;;;;;5031820;28;20540;-52
2022/12/12 03:41:01;;;;;;;12.83;9.13;;;;;;;;;;5032129;28;20824;-53
2022/12/12 03:43:34;;;;;;;13.03;9.70;;;-1.20;99.90;;;;;;5031622;28;20458;-55
2022/12/12 03:46:02;;;;;;;13.00;9.37;;;;;;;;;;5031829;28;20442;-54
2022/12/12 03:48:29;;;;;;;12.83;9.20;;;;;;;;;;5031622;28;20485;-52
2022/12/12 03:51:11;;;;;;;12.93;9.50;;;-1.40;99.90;;;;;;5031610;28;20556;-56
2022/12/12 03:53:43;;;;;;;11.60;9.33;;;;;;;;;;5031641;28;20419;-52
2022/12/12 03:56:09;;;;;;;13.03;9.37;;;;;;;;;;5031620;28;20935;-53
2022/12/12 03:58:59;;;;;;;12.80;9.50;;;-1.10;99.90;;;;;;5031613;28;20406;-52
2022/12/12 04:01:34;;;;;;;14.17;9.90;;;;;;;;;;5031470;28;20446;-53
2022/12/12 04:04:22;;;;;;;12.40;9.90;;;-1.10;99.90;;;;;;5031068;28;20462;-56
2022/12/12 04:07:09;;;;;;;11.83;9.20;;;;;;;;;;5031237;28;20958;-55
2022/12/12 04:15:27;;;;;;;12.23;9.10;;;;;;;;;;5031247;28;20776;-52
2022/12/12 04:17:53;;;;;;;13.80;8.53;;;;;;;;;;5028600;28;20450;-49
2022/12/12 04:23:31;;;;;;;13.33;9.13;;;;;;;;;;5033300;28;20257;-54
2022/12/12 04:29:03;;;;;;;12.20;8.97;;;-1.30;99.90;;;;;;5035766;28;20468;-57
2022/12/12 04:31:30;;;;;;;10.53;8.40;;;;;;;;;;5035424;28;20442;-54
2022/12/12 04:34:00;;;;;;;11.57;8.00;;;;;;;;;;5036261;28;20926;-54
2022/12/12 04:36:27;;;;;;;11.50;8.50;;;-1.40;99.90;;;;;;5035319;28;20484;-51
2022/12/12 04:38:55;;;;;;;11.37;8.40;;;;;;;;;;5035185;28;20785;-50
2022/12/12 04:41:22;;;;;;;11.30;8.00;;;-1.70;99.90;;;;;;5035036;28;20485;-56
2022/12/12 04:43:49;;;;;;;12.27;9.30;;;;;;;;;;5034855;28;20947;-54
2022/12/12 04:46:21;;;;;;;10.70;8.13;;;;;;;;;;5035080;28;20436;-56
2022/12/12 04:48:51;;;;;;;12.47;9.67;;;;;;;;;;5034838;28;20510;-54
2022/12/12 04:51:25;;;;;;;15.07;9.47;;;-1.70;99.90;;;;;;5034893;28;20413;-57
2022/12/12 04:53:58;;;;;;;12.67;9.77;;;-1.80;99.90;;;;;;5034700;28;20418;-53
2022/12/12 04:56:26;;;;;;;14.47;10.67;;;;;;;;;;5034995;28;20810;-54
2022/12/12 04:58:52;;;;;;;14.13;10.13;;;;;;;;;;5034799;28;20498;-55
2022/12/12 05:01:38;;;;;;;15.20;10.30;;;;;;;;;;5034621;28;20473;-53
2022/12/12 05:04:17;;;;;;;14.47;10.40;;;-1.60;99.90;;;;;;5034067;28;20462;-55
2022/12/12 05:06:46;;;;;;;14.10;10.30;;;;;;;;;;5034707;28;20772;-55
2022/12/12 05:09:13;;;;;;;16.40;11.23;;;;;;;;;;5034741;28;20823;-54
2022/12/12 05:11:39;;;;;;;13.73;9.93;;;;;;;;;;5034630;28;20430;-57
2022/12/12 05:14:08;;;;;;;15.33;11.67;;;-1.60;99.90;;;;;;5034229;28;20410;-55
2022/12/12 05:16:44;;;;;;;13.90;10.20;;;-1.00;99.90;;;;;;5034743;28;20437;-53
2022/12/12 05:19:10;;;;;;;15.10;11.03;;;;;;;;;;5034528;28;20406;-56
2022/12/12 05:21:36;;;;;;;18.37;11.93;;;;;;;;;;5034595;28;20434;-53
2022/12/12 05:24:02;;;;;;;16.90;11.13;;;;;;;;;;5034234;28;20200;-52
2022/12/12 05:26:30;;;;;;;15.10;10.77;;;;;;;;;;5034410;28;20182;-52
2022/12/12 05:28:56;;;;;;;15.77;11.00;;;;;;;;;;5034342;28;20475;-55
2022/12/12 05:31:22;;;;;;;15.47;10.37;;;;;;;;;;5034251;28;20423;-55
2022/12/12 05:33:48;;;;;;;14.37;10.37;;;;;;;;;;5033964;28;20418;-55
2022/12/12 05:36:14;;;;;;;14.73;10.40;;;;;;;;;;5034391;28;20207;-55
2022/12/12 05:38:41;;;;;;;14.00;10.33;;;;;;;;;;5034068;28;20501;-55
2022/12/12 05:41:07;;;;;;;15.87;11.40;;;;;;;;;;5034081;28;20923;-54
2022/12/12 05:43:34;;;;;;;13.80;10.17;;;;;;;;;;5034053;28;20917;-54
2022/12/12 05:46:00;;;;;;;13.93;9.97;;;;;;;;;;5034197;28;20437;-54
2022/12/12 05:48:26;;;;;;;13.57;9.93;;;;;;;;;;5033828;28;20399;-52
2022/12/12 05:50:52;;;;;;;14.27;10.20;;;;;;;;;;5033808;28;20402;-55
2022/12/12 05:53:18;;;;;;;14.23;10.47;;;-0.60;99.90;;;;;;5033583;28;20441;-52
2022/12/12 05:55:44;;;;;;;14.90;10.57;;;-0.60;99.90;;;;;;5033529;28;20425;-55
2022/12/12 05:58:10;;;;;;;13.53;10.17;;;;;;;;;;5033945;28;20415;-55
2022/12/12 06:00:36;;;;;;;15.50;10.90;;;;;;;;;;5033321;28;20230;-56
2022/12/12 06:03:02;;;;;;;13.87;10.47;;;;;;;;;;5033415;28;20454;-53
2022/12/12 06:05:28;;;;;;;16.40;11.10;;;-1.20;99.90;;;;;;5033370;28;20410;-54
2022/12/12 06:07:54;;;;;;;13.57;10.23;;;;;;;;;;5033652;28;20644;-53
2022/12/12 06:10:19;;;;;;;15.83;11.73;;;-1.00;99.90;;;;;;5033409;28;20179;-52
2022/12/12 06:12:45;;;;;;;16.77;11.17;;;-1.10;99.90;;;;;;5033492;28;20249;-52
2022/12/12 06:15:10;;;;;;;13.23;10.27;;;-1.00;99.90;;;;;;5033241;28;20168;-50
2022/12/12 06:17:36;;;;;;;16.40;10.70;;;;;;;;;;5033400;28;20675;-51
2022/12/12 06:20:03;;;;;;;13.20;9.93;;;;;;;;;;5033477;28;20851;-54
2022/12/12 06:22:29;;;;;;;14.53;10.47;;;;;;;;;;5030738;28;20207;-55
2022/12/12 06:24:55;;;;;;;13.77;9.50;;;;;;;;;;5031813;28;20466;-57
2022/12/12 06:27:21;;;;;;;15.00;10.17;;;;;;;;;;5032732;28;20172;-51
2022/12/12 06:29:47;;;;;;;13.40;9.73;;;;;;;;;;5028095;28;20263;-51
2022/12/12 06:32:13;;;;;;;12.63;9.53;;;;;;;;;;5032168;28;20979;-56
2022/12/12 06:34:39;;;;;;;13.73;9.67;;;;;;;;;;5032606;28;20210;-55
2022/12/12 06:37:06;;;;;;;13.67;9.47;;;;;;;;;;5032991;28;20793;-56
2022/12/12 06:39:32;;;;;;;13.37;9.43;;;;;;;;;;5032590;28;21042;-51
2022/12/12 06:41:58;;;;;;;12.57;9.07;;;;;;;;;;5027908;28;20447;-51
2022/12/12 06:44:24;;;;;;;13.13;9.37;;;;;;;;;;5032576;28;20458;-49
2022/12/12 06:46:50;;;;;;;11.90;8.73;;;;;;;;;;5032776;28;20402;-50
2022/12/12 06:49:16;;;;;;;12.67;9.97;;;;;;;;;;5033244;28;20179;-50
2022/12/12 06:51:47;;;;;;;11.57;8.70;;;;;;;;;;5027474;28;20212;-53
2022/12/12 06:54:15;;;;;;;12.87;8.83;;;;;;;;;;5027424;28;20188;-54
2022/12/12 06:56:41;;;;;;;11.63;8.73;;;;;;;;;;5032070;28;20435;-52
2022/12/12 06:59:07;;;;;;;13.27;8.53;;;;;;;;;;5029041;28;20446;-53
2022/12/12 07:01:32;;;;;;;11.57;8.63;;;-0.50;99.90;;;;;;5031233;28;20450;-53
2022/12/12 07:03:59;;;;;;;11.23;8.30;;;;;;;;;;5031359;28;20703;-58
2022/12/12 07:06:25;;;;;;;11.27;8.33;;;;;;;;;;5031502;28;20657;-50
2022/12/12 07:08:51;;;;;;;10.93;8.07;;;-0.50;99.90;;;;;;5030562;28;20428;-53
2022/12/12 07:11:22;;;;;;;10.90;8.60;;;-0.70;99.90;;;;;;5031717;28;20427;-51
2022/12/12 07:13:47;;;;;;;10.27;8.07;;;-0.70;99.90;;;;;;5029825;28;20430;-54
2022/12/12 07:16:14;;;;;;;11.27;8.53;;;-0.80;99.90;;;;;;5029591;28;20431;-51
2022/12/12 07:18:40;;;;;;;10.80;8.60;;;;;;;;;;5031958;28;20260;-48
2022/12/12 07:21:07;;;;;;;13.43;8.83;;;;;;;;;;5031291;28;20943;-54
2022/12/12 07:23:33;;;;;;;10.70;8.13;;;-0.50;99.90;;;;;;5031414;28;20210;-53
2022/12/12 07:26:03;;;;;;;12.53;9.07;;;-0.50;99.90;;;;;;5028781;28;20504;-51
2022/12/12 07:28:29;;;;;;;12.77;9.33;;;-0.50;99.90;;;;;;5030297;28;20435;-51
2022/12/12 07:30:54;;;;;;;11.63;8.73;;;-0.40;99.90;;;;;;5030805;28;20514;-50
2022/12/12 07:33:20;;;;;;;11.80;8.43;;;-0.40;99.90;;;;;;5031437;28;20211;-52
2022/12/12 07:35:46;;;;;;;11.07;8.13;;;-0.40;99.90;;;;;;5030420;28;20191;-52
2022/12/12 07:38:11;;;;;;;10.90;7.87;;;-0.30;99.90;;;;;;5030884;28;20483;-51
2022/12/12 07:40:38;;;;;;;11.90;8.10;;;-0.20;99.90;;;;;;5031613;28;20645;-51
2022/12/12 07:43:03;;;;;;;11.83;8.17;;;-0.10;99.90;;;;;;5030238;28;20227;-52
2022/12/12 07:45:29;;;;;;;9.77;7.83;;;0.20;99.90;;;;;;5031041;28;20940;-49
2022/12/12 07:47:54;;;;;;;13.13;8.77;;;0.20;99.90;;;;;;5026975;28;20184;-53
2022/12/12 07:50:21;;;;;;;9.93;7.93;;;0.30;99.90;;;;;;5030861;28;20180;-51
2022/12/12 07:52:46;;;;;;;12.03;8.27;;;0.30;99.90;;;;;;5029273;28;20596;-54
2022/12/12 07:55:12;;;;;;;10.60;8.30;;;0.30;99.90;;;;;;5030406;28;20461;-55
2022/12/12 07:57:38;;;;;;;12.77;8.30;;;0.20;99.90;;;;;;5030284;28;20207;-50
2022/12/12 08:00:05;;;;;;;12.63;9.03;;;0.20;99.90;;;;;;5031171;28;20228;-51
2022/12/12 08:02:31;;;;;;;10.93;8.07;;;0.20;99.90;;;;;;5031103;28;20525;-53
2022/12/12 08:04:56;;;;;;;10.10;8.13;;;0.20;99.90;;;;;;5030487;28;20477;-52
2022/12/12 08:07:23;;;;;;;11.30;7.93;;;0.30;99.90;;;;;;5031472;28;20175;-54
2022/12/12 08:09:48;;;;;;;10.37;8.00;;;0.40;99.90;;;;;;5031171;28;20652;-52
2022/12/12 08:12:14;;;;;;;13.07;8.40;;;0.50;99.90;;;;;;5029486;28;20442;-54
2022/12/12 08:14:39;;;;;;;8.93;7.53;;;0.50;99.90;;;;;;5030408;28;20266;-56
2022/12/12 08:17:05;;;;;;;12.80;8.47;;;0.40;99.90;;;;;;5031113;28;20259;-53
2022/12/12 08:19:31;;;;;;;10.83;8.20;;;0.50;99.90;;;;;;5028221;28;20200;-54
2022/12/12 08:21:57;;;;;;;9.97;8.23;;;0.50;99.90;;;;;;5029115;28;20259;-51
2022/12/12 08:24:23;;;;;;;12.43;8.77;;;0.50;99.90;;;;;;5029765;28;20565;-51
2022/12/12 08:26:49;;;;;;;11.60;8.87;;;0.30;99.90;;;;;;5029608;28;20183;-52
2022/12/12 08:29:14;;;;;;;11.97;9.03;;;0.20;99.90;;;;;;5029037;28;20187;-56
2022/12/12 08:31:40;;;;;;;13.53;9.43;;;0.10;99.90;;;;;;5030361;28;20466;-51
2022/12/12 08:34:06;;;;;;;12.53;8.30;;;0.10;99.90;;;;;;5030192;28;20187;-49
2022/12/12 08:36:33;;;;;;;13.17;8.87;;;-0.30;99.90;;;;;;5030836;28;20172;-52
2022/12/12 08:39:09;;;;;;;9.63;7.60;;;-0.70;99.90;;;;;;5030748;28;20172;-54
2022/12/12 08:41:36;;;;;;;11.33;8.27;;;-1.00;99.90;;;;;;5030723;28;20509;-51
2022/12/12 08:44:02;;;;;;;9.97;7.80;;;-1.10;99.90;;;;;;5030104;28;20454;-51
2022/12/12 08:46:28;;;;;;;12.10;8.27;;;-1.30;99.90;;;;;;5031133;28;20406;-57
2022/12/12 08:48:53;;;;;;;11.73;8.93;;;-1.30;99.90;;;;;;5029870;28;20179;-56
2022/12/12 08:51:19;;;;;;;11.40;8.47;;;-1.40;99.90;;;;;;5030520;28;20187;-49
2022/12/12 08:53:46;;;;;;;11.77;8.70;;;-1.70;99.90;;;;;;5030836;28;20180;-49
2022/12/12 08:56:12;;;;;;;11.73;8.03;;;-1.70;99.90;;;;;;5030748;28;20172;-55
2022/12/12 08:58:38;;;;;;;10.33;8.03;;;-1.50;99.90;;;;;;5026228;28;21010;-55
2022/12/12 09:01:13;;;;;;;9.73;7.77;;;-1.00;99.90;;;;;;5029148;28;20191;-53
2022/12/12 09:03:38;;;;;;;11.30;7.97;;;-0.70;99.90;;;;;;5029593;28;20737;-51
2022/12/12 09:06:09;;;;;;;10.17;8.07;;;-0.40;99.90;;;;;;5029911;28;20512;-55
2022/12/12 09:08:35;;;;;;;10.13;7.97;;;0.10;99.90;;;;;;5029059;28;20172;-52
2022/12/12 09:11:01;;;;;;;10.50;8.60;;;0.70;99.90;;;;;;5033546;28;20490;-52
2022/12/12 09:13:26;;;;;;;10.30;8.27;;;1.30;99.90;;;;;;5033715;28;20438;-51
2022/12/12 09:15:52;;;;;;;10.17;8.17;;;1.70;99.90;;;;;;5033109;28;20270;-51
2022/12/12 09:18:19;;;;;;;12.07;8.50;;;2.00;99.90;;;;;;5033917;28;20262;-50
2022/12/12 09:20:53;;;;;;;10.97;8.40;;;2.20;99.90;;;;;;5033783;28;20184;-51
2022/12/12 09:23:20;;;;;;;10.03;8.10;;;2.70;99.90;;;;;;5033428;28;20462;-55
2022/12/12 09:25:46;;;;;;;10.20;8.37;;;3.20;99.90;;;;;;5033395;28;20469;-55
2022/12/12 09:28:13;;;;;;;10.30;7.87;;;3.70;99.90;;;;;;5033523;28;20667;-56
2022/12/12 09:30:40;;;;;;;9.57;7.83;;;3.60;99.90;;;;;;5033581;28;20202;-52
2022/12/12 09:33:05;;;;;;;9.90;7.93;;;3.30;99.90;;;;;;5032988;28;20719;-54
2022/12/12 09:35:31;;;;;;;9.57;7.80;;;2.90;99.90;;;;;;5033219;28;20196;-56
2022/12/12 09:37:56;;;;;;;11.27;8.57;;;1.90;99.90;;;;;;5033318;28;20182;-56
2022/12/12 09:40:29;;;;;;;8.50;7.40;;;1.70;99.90;;;;;;5033165;28;20176;-51
2022/12/12 09:42:55;;;;;;;10.40;7.90;;;1.40;99.90;;;;;;5032673;28;20203;-51
2022/12/12 09:45:21;;;;;;;9.23;7.43;;;1.00;99.90;;;;;;5033032;28;20766;-56
2022/12/12 09:47:54;;;;;;;9.27;7.57;;;1.10;99.90;;;;;;5033399;28;20187;-49
2022/12/12 09:50:49;;;;;;;10.83;7.70;;;1.30;99.90;;;;;;5033825;28;20199;-50
2022/12/12 09:53:18;;;;;;;11.07;8.50;;;1.30;99.90;;;;;;5030709;28;20959;-54
2022/12/12 09:55:50;;;;;;;10.60;7.90;;;1.40;99.90;;;;;;5032995;28;20176;-53
2022/12/12 09:58:53;;;;;;;10.00;7.90;;;1.50;99.90;;;;;;5032765;28;20188;-57
2022/12/12 10:01:46;;;;;;;8.70;7.10;;;1.70;99.90;;;;;;5033293;28;20449;-56
2022/12/12 10:04:37;;;;;;;8.50;7.10;;;2.90;99.90;;;;;;5032515;28;20200;-58
2022/12/12 10:07:22;;;;;;;9.07;7.73;;;4.00;98.30;;;;;;5033434;28;20195;-55
2022/12/12 10:10:01;;;;;;;8.53;6.83;;;5.90;96.50;;;;;;5032552;28;20186;-55
2022/12/12 10:12:28;;;;;;;9.10;7.63;;;7.20;93.70;;;;;;5032030;28;20196;-53
2022/12/12 10:15:06;;;;;;;10.13;8.87;;;8.20;92.30;;;;;;5032350;28;20549;-54
2022/12/12 10:17:36;;;;;;;7.47;6.67;;;8.90;91.50;;;;;;5032730;28;20180;-52
2022/12/12 10:20:14;;;;;;;7.33;6.50;;;9.30;86.30;;;;;;5031912;28;20168;-55
2022/12/12 10:22:48;;;;;;;8.60;7.00;;;8.70;85.70;;;;;;5032523;28;20206;-55
2022/12/12 10:25:36;;;;;;;8.07;6.70;;;9.50;86.60;;;;;;5032475;28;20184;-54
2022/12/12 10:28:14;;;;;;;6.40;5.70;;;10.40;83.10;;;;;;5032726;28;20176;-53
2022/12/12 10:31:10;;;;;;;6.33;5.70;;;11.10;80.00;;;;;;5031412;28;20179;-52
2022/12/12 10:33:36;;;;;;;6.70;5.87;;;12.10;78.70;;;;;;5031997;28;20184;-56
2022/12/12 10:36:45;;;;;;;6.67;5.90;;;12.40;72.70;;;;;;5032231;28;20180;-53
2022/12/12 10:39:35;;;;;;;6.57;5.80;;;12.70;71.90;;;;;;5031954;28;20651;-51
2022/12/12 10:42:18;;;;;;;6.20;5.60;;;13.30;68.00;;;;;;5033640;28;20194;-55
2022/12/12 10:44:44;;;;;;;6.50;5.80;;;14.00;72.30;;;;;;5032157;28;20199;-52
2022/12/12 10:47:11;;;;;;;5.87;5.30;;;14.60;62.60;;;;;;5032325;28;20283;-54
2022/12/12 10:49:38;;;;;;;6.47;5.87;;;16.00;63.80;;;;;;5032240;28;20636;-56
2022/12/12 10:52:17;;;;;;;6.07;5.47;;;15.90;56.70;;;;;;5032007;28;20211;-54
2022/12/12 10:54:58;;;;;;;6.33;5.73;;;15.30;55.80;;;;;;5031401;28;20330;-56
2022/12/12 10:57:32;;;;;;;6.63;6.03;;;15.00;55.80;;;;;;5032057;28;20176;-55
2022/12/12 10:59:58;;;;;;;6.57;5.93;;;14.50;56.10;;;;;;5031635;28;20652;-54
2022/12/12 11:02:26;;;;;;;6.20;5.60;;;15.40;57.10;;;;;;5031854;28;20271;-55
2022/12/12 11:05:04;;;;;;;5.47;4.97;;;15.60;54.30;;;;;;5031839;28;20227;-55
2022/12/12 11:07:30;;;;;;;5.60;5.10;;;15.30;53.40;;;;;;5032148;28;20172;-52
2022/12/12 11:09:57;;;;;;;5.20;4.70;;;15.30;52.40;;;;;;5032149;28;20168;-54
2022/12/12 11:12:32;;;;;;;5.10;4.60;;;14.00;51.90;;;;;;5032137;28;20188;-55
2022/12/12 11:15:06;;;;;;;5.20;4.70;;;13.80;57.10;;;;;;5032257;28;20179;-57
2022/12/12 11:17:33;;;;;;;5.67;5.07;;;14.00;54.10;;;;;;5030773;28;20180;-52
2022/12/12 11:20:01;;;;;;;6.00;5.40;;;13.80;55.60;;;;;;5030807;28;20317;-56
2022/12/12 11:22:30;;;;;;;5.57;5.07;;;14.00;56.30;;;;;;5031515;28;20188;-53
2022/12/12 11:24:56;;;;;;;5.47;4.97;;;12.90;55.80;;;;;;5031505;28;20282;-56
2022/12/12 11:27:27;;;;;;;5.30;4.80;;;12.50;58.90;;;;;;5031733;28;20191;-53
2022/12/12 11:30:07;;;;;;;5.30;4.77;;;13.70;60.40;;;;;;5031660;28;20169;-57
2022/12/12 11:32:40;;;;;;;5.30;4.80;;;15.20;55.80;;;;;;5031186;28;20294;-56
2022/12/12 11:35:22;;;;;;;6.00;5.40;;;15.30;54.80;;;;;;5031218;28;20195;-57
2022/12/12 11:37:54;;;;;;;6.03;5.43;;;16.40;54.10;;;;;;5031245;28;20321;-57
2022/12/12 11:40:35;;;;;;;5.17;4.50;;;17.30;51.00;;;;;;5030790;28;20179;-56
2022/12/12 11:43:15;;;;;;;5.90;5.20;;;14.60;50.00;;;;;;5030866;28;20195;-51
2022/12/12 11:45:41;;;;;;;5.10;4.60;;;12.10;53.10;;;;;;5030798;28;20537;-54
2022/12/12 11:48:36;;;;;;;5.00;4.50;;;10.70;54.70;;;;;;5031333;28;20180;-53
2022/12/12 11:51:02;;;;;;;5.43;4.93;;;10.90;60.40;;;;;;5031526;28;20558;-55
2022/12/12 11:53:28;;;;;;;4.97;4.47;;;11.50;57.30;;;;;;5031313;28;20245;-53
2022/12/12 11:56:17;;;;;;;5.20;4.70;;;11.40;58.40;;;;;;5031494;28;20187;-57
2022/12/12 11:58:47;;;;;;;5.50;4.57;;;11.20;56.30;;;;;;5009606;28;20222;-53
2022/12/12 12:01:31;;;;;;;5.20;4.70;;;11.30;56.40;;;;;;5009337;28;20180;-56
2022/12/12 12:04:22;;;;;;;4.90;4.40;;;11.80;57.30;;;;;;5009192;28;20204;-50
2022/12/12 12:06:59;;;;;;;6.00;4.90;;;11.70;56.10;;;;;;5009467;28;20179;-52
2022/12/12 12:09:39;;;;;;;6.50;4.30;;;11.40;56.90;;;;;;5009294;28;20597;-54
2022/12/12 12:12:13;;;;;;;5.97;4.80;;;10.90;56.30;;;;;;5009337;28;20188;-52
2022/12/12 12:14:57;;;;;;;5.70;4.87;;;10.20;57.30;;;;;;5009112;28;20256;-52
2022/12/12 12:18:11;;;;;;;5.00;4.50;;;9.60;59.00;;;;;;5009476;28;20184;-55
2022/12/12 12:20:48;;;;;;;6.07;4.70;;;9.20;63.70;;;;;;4989602;28;20192;-56
2022/12/12 12:23:16;;;;;;;4.27;3.87;;;9.50;61.00;;;;;;4989401;28;20271;-53
2022/12/12 12:25:57;;;;;;;4.63;3.90;;;9.50;60.20;;;;;;4989322;28;20809;-55
2022/12/12 12:28:48;;;;;;;5.20;4.17;;;9.10;62.90;;;;;;4990987;28;20263;-55
2022/12/12 12:31:26;;;;;;;4.67;4.20;;;8.70;60.10;;;;;;5008925;28;20593;-57
2022/12/12 12:34:14;;;;;;;5.07;4.17;;;8.30;62.60;;;;;;5008843;28;20347;-57
2022/12/12 12:37:01;;;;;;;4.43;3.87;;;7.60;62.50;;;;;;4992493;28;20181;-58
2022/12/12 12:39:50;;;;;;;4.90;4.40;;;7.10;64.50;;;;;;4989489;28;20177;-55
2022/12/12 12:42:22;;;;;;;6.70;4.30;;;7.00;68.60;;;;;;4989714;28;20204;-52
2022/12/12 12:45:05;;;;;;;4.73;4.17;;;7.20;66.80;;;;;;4991807;28;20291;-55
2022/12/12 12:47:57;;;;;;;4.67;3.80;;;7.20;66.00;;;;;;4993649;28;20170;-52
2022/12/12 12:50:34;;;;;;;5.40;4.03;;;7.30;66.80;;;;;;4993236;28;20200;-52
2022/12/12 12:53:13;;;;;;;5.07;4.57;;;7.30;68.70;;;;;;4993142;28;20740;-55
2022/12/12 12:55:44;;;;;;;4.30;3.90;;;7.30;66.10;;;;;;5008859;28;20179;-51
2022/12/12 12:58:19;;;;;;;4.97;4.40;;;7.00;66.80;;;;;;5034987;28;20242;-51
2022/12/12 13:00:51;;;;;;;6.33;4.27;;;7.10;69.80;;;;;;5034782;28;20640;-53
2022/12/12 13:03:23;;;;;;;5.30;4.73;;;6.80;67.70;;;;;;5034728;28;20199;-53
2022/12/12 13:06:00;;;;;;;5.27;4.73;;;6.70;70.50;;;;;;5034643;28;20168;-53
2022/12/12 13:08:33;;;;;;;7.23;4.70;;;6.90;71.40;;;;;;5034705;28;20164;-52
2022/12/12 13:11:07;;;;;;;6.13;5.03;;;6.40;71.00;;;;;;5034626;28;20667;-52
2022/12/12 13:13:38;;;;;;;6.20;5.60;;;6.00;72.50;;;;;;5034511;28;20275;-56
2022/12/12 13:16:12;;;;;;;7.07;5.77;;;5.90;74.50;;;;;;5034685;28;20179;-52
2022/12/12 13:18:39;;;;;;;6.40;5.50;;;5.80;77.70;;;;;;5034627;28;20180;-53
2022/12/12 13:21:28;;;;;;;6.83;5.73;;;5.80;76.80;;;;;;5034305;28;20649;-52
2022/12/12 13:24:09;;;;;;;6.70;5.70;;;5.80;77.10;;;;;;5032934;28;20199;-52
2022/12/12 13:27:09;;;;;;;7.07;5.70;;;5.80;76.60;;;;;;5034489;28;20375;-55
2022/12/12 13:29:42;;;;;;;7.40;4.83;;;5.60;77.30;;;;;;5034285;28;20204;-54
2022/12/12 13:32:28;;;;;;;5.27;4.77;;;5.30;76.60;;;;;;5034069;28;20203;-52
2022/12/12 13:34:58;;;;;;;6.23;5.17;;;5.00;75.70;;;;;;5034180;28;20180;-52
2022/12/12 13:37:25;;;;;;;7.30;5.57;;;4.80;77.60;;;;;;5034205;28;20180;-52
2022/12/12 13:40:03;;;;;;;7.23;5.83;;;4.70;77.40;;;;;;5034225;28;20266;-53
2022/12/12 13:42:51;;;;;;;7.50;5.93;;;4.80;79.30;;;;;;5033908;28;20218;-53
2022/12/12 13:45:38;;;;;;;6.67;5.77;;;4.80;80.40;;;;;;5033855;28;20263;-53
2022/12/12 13:48:25;;;;;;;6.53;5.77;;;4.80;80.60;;;;;;5033995;28;20176;-57
2022/12/12 13:51:32;;;;;;;7.17;5.80;;;4.70;81.70;;;;;;5033947;28;20187;-55
2022/12/12 13:54:07;;;;;;;7.40;6.60;;;4.40;82.50;;;;;;5033654;28;20180;-53
2022/12/12 13:56:36;;;;;;;8.93;7.07;;;4.50;86.80;;;;;;5032598;28;20179;-56
2022/12/12 13:59:24;;;;;;;7.93;6.60;;;4.80;87.20;;;;;;5033741;28;20263;-56
2022/12/12 14:02:00;;;;;;;8.17;7.00;;;4.90;85.90;;;;;;5033833;28;20191;-51